Time;durP1;ratioP1;P1;durP2;ratioP2;P2;SDS_P1;SDS_P2;PMS_P1;PMS_P2;Temp;Humidity;BMP_temperature;BMP_pressure;BME280_temperature;BME280_humidity;BME280_pressure;Samples;Min_cycle;Max_cycle;Signal;HPM_P1;HPM_P2
2022/10/19 00:01:45;;;;;;;53.20;29.33;;;;;;;;;;4939315;29;20044;-76
2022/10/19 00:04:30;;;;;;;58.30;29.30;;;;;;;;;;4939227;29;20048;-77
2022/10/19 00:07:16;;;;;;;52.78;29.23;;;;;;;;;;4945369;29;20043;-77
2022/10/19 00:10:02;;;;;;;53.17;29.40;;;;;;;;;;4939143;29;20051;-76
2022/10/19 00:12:49;;;;;;;58.13;28.25;;;;;;;;;;4945450;29;20044;-76
2022/10/19 00:15:38;;;;;;;57.13;28.35;;;;;;;;;;4939003;29;20043;-76
2022/10/19 00:18:23;;;;;;;47.83;24.20;;;;;;;;;;4945343;29;20047;-76
2022/10/19 00:21:11;;;;;;;48.10;24.10;;;;;;;;;;4938872;29;20040;-76
2022/10/19 00:23:56;;;;;;;39.97;21.60;;;;;;;;;;4938835;29;20044;-76
2022/10/19 00:26:42;;;;;;;39.20;20.67;;;;;;;;;;4939211;29;20047;-74
2022/10/19 00:29:28;;;;;;;35.15;18.67;;;;;;;;;;4938493;29;20043;-77
2022/10/19 00:32:13;;;;;;;34.55;19.02;;;;;;;;;;4938688;29;20047;-77
2022/10/19 00:35:00;;;;;;;52.80;25.30;;;;;;;;;;4938545;29;20048;-77
2022/10/19 00:37:45;;;;;;;41.83;22.90;;;;;;;;;;4945254;29;20047;-77
2022/10/19 00:40:38;;;;;;;37.20;20.33;;;;;;;;;;4938573;29;20043;-77
2022/10/19 00:43:26;;;;;;;38.10;21.00;;;;;;;;;;4938601;29;20039;-77
2022/10/19 00:46:13;;;;;;;34.58;17.70;;;;;;;;;;4938722;29;20047;-76
2022/10/19 00:49:20;;;;;;;27.33;16.02;;;;;;;;;;4938006;29;20047;-76
2022/10/19 00:52:11;;;;;;;28.02;15.35;;;;;;;;;;4937893;29;20044;-76
2022/10/19 00:54:58;;;;;;;30.38;14.77;;;;;;;;;;4938129;29;20051;-76
2022/10/19 00:57:44;;;;;;;28.73;15.10;;;;;;;;;;4938190;29;20048;-77
2022/10/19 01:00:29;;;;;;;27.35;15.18;;;;;;;;;;4938139;29;20406;-77
2022/10/19 01:03:14;;;;;;;31.30;14.93;;;;;;;;;;4944495;29;20047;-77
2022/10/19 01:06:00;;;;;;;26.23;13.27;;;;;;;;;;4938102;29;20051;-76
2022/10/19 01:08:46;;;;;;;29.98;14.35;;;;;;;;;;4944090;29;20047;-76
2022/10/19 01:11:59;;;;;;;26.77;14.85;;;;;;;;;;4938744;29;20047;-75
2022/10/19 01:14:57;;;;;;;24.10;13.65;;;;;;;;;;4938041;29;20039;-75
2022/10/19 01:18:25;;;;;;;23.20;13.63;;;;;;;;;;4943294;29;20048;-76
2022/10/19 01:21:17;;;;;;;19.45;12.30;;;;;;;;;;4937949;29;20047;-76
2022/10/19 01:24:31;;;;;;;25.30;13.85;;;;;;;;;;4943167;29;20052;-76
2022/10/19 01:27:29;;;;;;;19.25;12.73;;;;;;;;;;4944096;29;20047;-76
2022/10/19 01:30:17;;;;;;;21.40;12.77;;;;;;;;;;4943872;29;20047;-76
2022/10/19 01:33:20;;;;;;;28.38;16.10;;;;;;;;;;4937889;29;20043;-76
2022/10/19 01:36:36;;;;;;;33.38;17.08;;;;;;;;;;4943892;29;20047;-76
2022/10/19 01:40:02;;;;;;;36.65;17.52;;;;;;;;;;4937493;29;20039;-76
2022/10/19 01:42:51;;;;;;;36.35;18.98;;;;;;;;;;4929379;29;20047;-76
2022/10/19 01:45:58;;;;;;;45.90;22.15;;;;;;;;;;4943707;29;20485;-76
2022/10/19 01:49:01;;;;;;;42.38;21.48;;;;;;;;;;4937454;29;20048;-76
2022/10/19 01:51:52;;;;;;;42.40;21.92;;;;;;;;;;4937718;29;20043;-76
2022/10/19 01:54:43;;;;;;;44.38;23.13;;;;;;;;;;4935884;29;20051;-76
2022/10/19 01:57:36;;;;;;;42.88;21.90;;;;;;;;;;4937284;29;20048;-76
2022/10/19 02:00:22;;;;;;;53.40;23.88;;;;;;;;;;4937202;29;20043;-76
2022/10/19 02:03:09;;;;;;;42.30;22.80;;;;;;;;;;4937269;29;20044;-76
2022/10/19 02:05:56;;;;;;;43.42;23.30;;;;;;;;;;4936994;29;20039;-76
2022/10/19 02:08:46;;;;;;;43.97;22.50;;;;;;;;;;4936998;29;20048;-76
2022/10/19 02:11:32;;;;;;;44.47;22.88;;;;;;;;;;4937047;29;20398;-76
2022/10/19 02:14:22;;;;;;;41.58;24.10;;;;;;;;;;4937412;29;20059;-76
2022/10/19 02:17:12;;;;;;;34.75;21.75;;;;;;;;;;4937158;29;20051;-76
2022/10/19 02:19:58;;;;;;;35.55;21.38;;;;;;;;;;4935848;29;20044;-76
2022/10/19 02:22:44;;;;;;;36.60;22.23;;;;;;;;;;4937150;29;20402;-76
2022/10/19 02:25:29;;;;;;;35.95;21.17;;;;;;;;;;4936735;29;20047;-77
2022/10/19 02:28:16;;;;;;;36.72;22.55;;;;;;;;;;4936562;29;20048;-76
2022/10/19 02:31:02;;;;;;;36.60;20.42;;;;;;;;;;4936631;29;20047;-76
2022/10/19 02:33:47;;;;;;;43.65;22.25;;;;;;;;;;4936538;29;20047;-76
2022/10/19 02:36:33;;;;;;;33.45;20.02;;;;;;;;;;4936847;29;20052;-76
2022/10/19 02:39:19;;;;;;;33.97;18.98;;;;;;;;;;4935519;29;20047;-77
2022/10/19 02:42:19;;;;;;;38.60;19.27;;;;;;;;;;4936688;29;20044;-77
2022/10/19 02:45:04;;;;;;;32.65;17.83;;;;;;;;;;4936530;29;20047;-76
2022/10/19 02:47:55;;;;;;;29.75;17.90;;;;;;;;;;4936343;29;20044;-76
2022/10/19 02:50:45;;;;;;;39.83;18.25;;;;;;;;;;4936125;29;20060;-76
2022/10/19 02:53:30;;;;;;;29.13;17.20;;;;;;;;;;4936251;29;20123;-76
2022/10/19 02:56:16;;;;;;;28.23;15.57;;;;;;;;;;4936358;29;20047;-76
2022/10/19 02:59:02;;;;;;;26.80;14.35;;;;;;;;;;4936293;29;20039;-76
2022/10/19 03:01:48;;;;;;;19.42;12.43;;;;;;;;;;4936343;29;20401;-76
2022/10/19 03:04:34;;;;;;;23.10;12.48;;;;;;;;;;4936251;29;20043;-76
2022/10/19 03:07:20;;;;;;;22.27;11.98;;;;;;;;;;4936795;29;20470;-76
2022/10/19 03:10:06;;;;;;;23.98;12.93;;;;;;;;;;4936101;29;20040;-76
2022/10/19 03:12:51;;;;;;;26.00;14.30;;;;;;;;;;4936265;29;20047;-76
2022/10/19 03:15:36;;;;;;;24.63;12.35;;;;;;;;;;4936359;29;20401;-76
2022/10/19 03:18:22;;;;;;;22.83;12.82;;;;;;;;;;4936159;29;20048;-76
2022/10/19 03:21:11;;;;;;;26.42;13.68;;;;;;;;;;4942471;29;20088;-76
2022/10/19 03:23:59;;;;;;;38.40;18.20;;;;;;;;;;4936237;29;20039;-77
2022/10/19 03:26:44;;;;;;;34.88;18.80;;;;;;;;;;4936232;29;20052;-76
2022/10/19 03:29:29;;;;;;;33.88;17.73;;;;;;;;;;4935844;29;20052;-76
2022/10/19 03:32:14;;;;;;;42.95;19.17;;;;;;;;;;4939995;29;20056;-75
2022/10/19 03:35:00;;;;;;;37.13;19.27;;;;;;;;;;4939749;29;20048;-75
2022/10/19 03:37:45;;;;;;;40.78;19.23;;;;;;;;;;4939595;29;20494;-75
2022/10/19 03:40:31;;;;;;;39.00;19.00;;;;;;;;;;4939790;29;20043;-75
2022/10/19 03:43:17;;;;;;;37.45;19.58;;;;;;;;;;4939492;29;20043;-77
2022/10/19 03:46:02;;;;;;;38.30;19.83;;;;;;;;;;4939656;29;20048;-77
2022/10/19 03:48:48;;;;;;;39.33;19.45;;;;;;;;;;4939658;29;20044;-77
2022/10/19 03:51:34;;;;;;;34.00;19.05;;;;;;;;;;4939027;29;20059;-77
2022/10/19 03:54:20;;;;;;;36.38;19.55;;;;;;;;;;4946232;29;20398;-77
2022/10/19 03:57:05;;;;;;;36.30;18.90;;;;;;;;;;4939204;29;20044;-77
2022/10/19 03:59:51;;;;;;;39.00;20.05;;;;;;;;;;4939628;29;20040;-76
2022/10/19 04:02:37;;;;;;;36.55;18.33;;;;;;;;;;4939388;29;20048;-77
2022/10/19 04:05:22;;;;;;;40.55;18.75;;;;;;;;;;4939032;29;20047;-76
2022/10/19 04:08:08;;;;;;;29.95;16.90;;;;;;;;;;4939231;29;20481;-76
2022/10/19 04:10:59;;;;;;;29.27;17.50;;;;;;;;;;4939099;29;20402;-76
2022/10/19 04:13:47;;;;;;;31.20;17.42;;;;;;;;;;4944731;29;20048;-76
2022/10/19 04:16:33;;;;;;;32.20;19.05;;;;;;;;;;4939027;29;20481;-76
2022/10/19 04:19:18;;;;;;;39.72;20.85;;;;;;;;;;4938863;29;20048;-76
2022/10/19 04:22:04;;;;;;;36.38;20.67;;;;;;;;;;4938863;29;20043;-76
2022/10/19 04:24:49;;;;;;;33.08;18.48;;;;;;;;;;4938758;29;20043;-76
2022/10/19 04:27:35;;;;;;;32.88;17.88;;;;;;;;;;4938841;29;20056;-76
2022/10/19 04:30:20;;;;;;;32.88;19.05;;;;;;;;;;4938428;29;20048;-76
2022/10/19 04:33:06;;;;;;;33.83;18.52;;;;;;;;;;4938555;29;20421;-76
2022/10/19 04:36:00;;;;;;;31.35;18.65;;;;;;;;;;4944963;29;20051;-76
2022/10/19 04:38:45;;;;;;;30.85;17.58;;;;;;;;;;4934059;29;20075;-77
2022/10/19 04:41:32;;;;;;;31.60;18.88;;;;;;;;;;4937992;29;20047;-76
2022/10/19 04:44:18;;;;;;;31.25;18.35;;;;;;;;;;4938647;29;20048;-77
2022/10/19 04:47:04;;;;;;;38.78;18.67;;;;;;;;;;4938386;29;20409;-77
2022/10/19 04:49:49;;;;;;;35.13;19.88;;;;;;;;;;4938371;29;20039;-77
2022/10/19 04:52:35;;;;;;;32.05;17.77;;;;;;;;;;4938262;29;20039;-78
2022/10/19 04:55:21;;;;;;;36.33;18.20;;;;;;;;;;4938433;29;20462;-77
2022/10/19 04:58:06;;;;;;;35.10;19.38;;;;;;;;;;4938447;29;20052;-77
2022/10/19 05:00:52;;;;;;;31.92;18.70;;;;;;;;;;4924042;29;20044;-77
2022/10/19 05:03:38;;;;;;;38.97;19.17;;;;;;;;;;4938425;29;20100;-78
2022/10/19 05:06:23;;;;;;;32.33;19.13;;;;;;;;;;4938103;29;20048;-80
2022/10/19 05:09:09;;;;;;;47.95;23.20;;;;;;;;;;4937943;29;20047;-79
2022/10/19 05:11:54;;;;;;;37.70;22.65;;;;;;;;;;4938207;29;20044;-78
2022/10/19 05:14:40;;;;;;;43.30;23.80;;;;;;;;;;4937746;29;20047;-77
2022/10/19 05:17:29;;;;;;;46.05;23.45;;;;;;;;;;4943441;29;20044;-78
2022/10/19 05:20:14;;;;;;;39.13;20.80;;;;;;;;;;4937719;29;20051;-77
2022/10/19 05:22:59;;;;;;;36.28;20.73;;;;;;;;;;4936530;29;20047;-78
2022/10/19 05:25:45;;;;;;;30.05;18.10;;;;;;;;;;4937008;29;20393;-77
2022/10/19 05:28:31;;;;;;;33.60;17.80;;;;;;;;;;4943721;29;20043;-78
2022/10/19 05:31:19;;;;;;;30.42;16.83;;;;;;;;;;4936172;29;20051;-77
2022/10/19 05:34:04;;;;;;;48.17;20.45;;;;;;;;;;4937143;29;20063;-77
2022/10/19 05:36:49;;;;;;;57.30;28.85;;;;;;;;;;4937315;29;20055;-78
2022/10/19 05:39:35;;;;;;;33.10;18.65;;;;;;;;;;4937527;29;20044;-78
2022/10/19 05:42:20;;;;;;;36.13;18.90;;;;;;;;;;4936948;29;20056;-77
2022/10/19 05:45:06;;;;;;;37.20;19.05;;;;;;;;;;4937147;29;20048;-77
2022/10/19 05:47:52;;;;;;;39.75;19.15;;;;;;;;;;4936997;29;20060;-78
2022/10/19 05:50:37;;;;;;;35.38;19.08;;;;;;;;;;4936269;29;20060;-78
2022/10/19 05:53:23;;;;;;;73.93;35.92;;;;;;;;;;4936600;29;20047;-78
2022/10/19 05:56:13;;;;;;;44.40;24.08;;;;;;;;;;4936756;29;20055;-78
2022/10/19 05:59:00;;;;;;;44.80;22.05;;;;;;;;;;4936212;29;20045;-78
2022/10/19 06:01:47;;;;;;;44.22;22.13;;;;;;;;;;4937282;29;20055;-78
2022/10/19 06:04:33;;;;;;;35.75;19.73;;;;;;;;;;4943331;29;20047;-77
2022/10/19 06:07:18;;;;;;;41.95;18.83;;;;;;;;;;4929274;29;20055;-77
2022/10/19 06:10:04;;;;;;;37.42;19.02;;;;;;;;;;4943154;29;20052;-79
2022/10/19 06:12:49;;;;;;;48.83;27.48;;;;;;;;;;4937158;29;20044;-78
2022/10/19 06:15:38;;;;;;;48.70;25.13;;;;;;;;;;4936961;29;20048;-76
2022/10/19 06:18:24;;;;;;;43.65;24.05;;;;;;;;;;4936586;29;20486;-79
2022/10/19 06:21:13;;;;;;;42.08;22.15;;;;;;;;;;4943102;29;20043;-78
2022/10/19 06:24:01;;;;;;;41.70;24.02;;;;;;;;;;4937066;29;20048;-76
2022/10/19 06:26:47;;;;;;;41.03;24.65;;;;;;;;;;4943093;29;20052;-78
2022/10/19 06:29:33;;;;;;;56.13;29.73;;;;;;;;;;4937457;29;20043;-76
2022/10/19 06:32:18;;;;;;;53.20;27.58;;;;;;;;;;4937721;29;20055;-77
2022/10/19 06:35:04;;;;;;;31.85;18.38;;;;;;;;;;4937802;29;20044;-79
2022/10/19 06:37:50;;;;;;;36.17;21.20;;;;;;;;;;4937758;29;20466;-78
2022/10/19 06:40:35;;;;;;;35.00;19.23;;;;;;;;;;4937173;29;20047;-78
2022/10/19 06:43:21;;;;;;;33.35;18.40;;;;;;;;;;4937148;29;20044;-79
2022/10/19 06:46:12;;;;;;;24.25;14.40;;;;;;;;;;4937204;29;20055;-78
2022/10/19 06:49:00;;;;;;;28.85;17.88;;;;;;;;;;4936669;29;20048;-78
2022/10/19 06:51:45;;;;;;;26.58;14.27;;;;;;;;;;4935985;29;20561;-79
2022/10/19 06:54:31;;;;;;;28.42;15.27;;;;;;;;;;4936552;29;20485;-77
2022/10/19 06:57:16;;;;;;;21.63;13.90;;;;;;;;;;4936254;29;20055;-77
2022/10/19 07:00:03;;;;;;;31.73;15.38;;;;;;;;;;4936253;29;20040;-79
2022/10/19 07:02:48;;;;;;;31.70;17.90;;;;;;;;;;4922034;29;20048;-79
2022/10/19 07:05:33;;;;;;;42.10;22.42;;;;;;;;;;4943669;29;20043;-79
2022/10/19 07:08:19;;;;;;;45.40;23.27;;;;;;;;;;4947272;29;20040;-78
2022/10/19 07:11:23;;;;;;;37.75;21.67;;;;;;;;;;4946510;29;20047;-78
2022/10/19 07:14:30;;;;;;;43.65;22.85;;;;;;;;;;4927546;29;20055;-77
2022/10/19 07:17:16;;;;;;;36.03;21.35;;;;;;;;;;4940484;29;20043;-82
2022/10/19 07:20:01;;;;;;;35.22;21.35;;;;;;;;;;4940483;29;20044;-80
2022/10/19 07:22:46;;;;;;;32.88;19.75;;;;;;;;;;4941767;29;20047;-82
2022/10/19 07:25:32;;;;;;;26.48;12.02;;;;;;;;;;4940361;29;20405;-83
2022/10/19 07:28:19;;;;;;;13.52;6.00;;;;;;;;;;4944308;29;20043;-81
2022/10/19 07:31:07;;;;;;;14.38;6.88;;;;;;;;;;4940138;29;20056;-81
2022/10/19 07:33:57;;;;;;;10.68;4.90;;;;;;;;;;4940593;29;20035;-81
2022/10/19 07:36:46;;;;;;;11.95;7.03;;;;;;;;;;4940023;29;20497;-84
2022/10/19 07:39:32;;;;;;;14.85;6.65;;;;;;;;;;4939960;29;20040;-82
2022/10/19 07:42:17;;;;;;;20.65;10.50;;;;;;;;;;4939789;29;20056;-83
2022/10/19 07:45:04;;;;;;;17.13;10.25;;;;;;;;;;4930979;29;20051;-82
2022/10/19 07:47:49;;;;;;;18.00;9.80;;;;;;;;;;4939630;29;20047;-81
2022/10/19 07:50:34;;;;;;;11.90;6.82;;;;;;;;;;4940469;29;20059;-80
2022/10/19 07:53:21;;;;;;;18.95;9.68;;;;;;;;;;4943540;29;20044;-82
2022/10/19 07:56:14;;;;;;;22.55;10.75;;;;;;;;;;4939689;29;20044;-82
2022/10/19 07:59:01;;;;;;;19.15;10.60;;;;;;;;;;4939344;29;20048;-78
2022/10/19 08:01:47;;;;;;;18.70;9.75;;;;;;;;;;4939438;29;20047;-81
2022/10/19 08:04:32;;;;;;;14.82;8.85;;;;;;;;;;4939909;29;20406;-77
2022/10/19 08:07:18;;;;;;;13.18;6.28;;;;;;;;;;4941081;29;20043;-77
2022/10/19 08:10:04;;;;;;;11.52;6.25;;;;;;;;;;4945523;29;20052;-77
2022/10/19 08:12:49;;;;;;;11.35;6.18;;;;;;;;;;4939573;29;20048;-77
2022/10/19 08:15:35;;;;;;;5.53;3.88;;;;;;;;;;4939655;29;20055;-77
2022/10/19 08:18:21;;;;;;;10.40;5.65;;;;;;;;;;4938161;29;20485;-77
2022/10/19 08:21:07;;;;;;;16.00;8.50;;;;;;;;;;4938949;29;20043;-77
2022/10/19 08:23:53;;;;;;;14.45;8.85;;;;;;;;;;4938732;29;20044;-77
2022/10/19 08:26:39;;;;;;;15.00;8.68;;;;;;;;;;4945049;29;20048;-77
2022/10/19 08:29:24;;;;;;;22.92;8.15;;;;;;;;;;4939594;29;20047;-77
2022/10/19 08:32:10;;;;;;;14.77;8.80;;;;;;;;;;4939855;29;20056;-77
2022/10/19 08:34:56;;;;;;;15.43;8.63;;;;;;;;;;4939049;29;20043;-77
2022/10/19 08:37:41;;;;;;;15.45;7.65;;;;;;;;;;4941485;29;20048;-77
2022/10/19 08:40:29;;;;;;;16.92;8.82;;;;;;;;;;4938563;29;20047;-77
2022/10/19 08:43:23;;;;;;;16.88;8.77;;;;;;;;;;4945268;29;20478;-77
2022/10/19 08:46:25;;;;;;;14.98;8.57;;;;;;;;;;4939434;29;20043;-78
2022/10/19 08:49:17;;;;;;;15.13;8.57;;;;;;;;;;4938347;29;20048;-78
2022/10/19 08:52:14;;;;;;;16.52;7.90;;;;;;;;;;4938949;29;20406;-78
2022/10/19 08:55:04;;;;;;;15.45;9.63;;;;;;;;;;4939648;29;20048;-78
2022/10/19 08:58:15;;;;;;;19.83;9.48;;;;;;;;;;4944707;29;20043;-78
2022/10/19 09:01:38;;;;;;;20.98;8.32;;;;;;;;;;4938467;29;20044;-77
2022/10/19 09:04:35;;;;;;;15.30;7.93;;;;;;;;;;4938526;29;20051;-76
2022/10/19 09:07:35;;;;;;;21.17;9.98;;;;;;;;;;4944556;29;20051;-78
2022/10/19 09:10:42;;;;;;;16.55;9.50;;;;;;;;;;4937859;29;20043;-77
2022/10/19 09:13:36;;;;;;;18.02;9.30;;;;;;;;;;4937985;29;20433;-77
2022/10/19 09:16:23;;;;;;;16.42;8.25;;;;;;;;;;4939001;29;20421;-79
2022/10/19 09:19:21;;;;;;;11.15;7.45;;;;;;;;;;4938000;29;20462;-77
2022/10/19 09:22:17;;;;;;;19.35;10.70;;;;;;;;;;4944741;29;20068;-79
2022/10/19 09:25:12;;;;;;;18.83;9.43;;;;;;;;;;4944272;29;20051;-78
2022/10/19 09:28:09;;;;;;;16.00;10.55;;;;;;;;;;4937814;29;20483;-78
2022/10/19 09:30:56;;;;;;;17.15;9.95;;;;;;;;;;4943982;29;20497;-78
2022/10/19 09:33:48;;;;;;;18.52;10.45;;;;;;;;;;4937533;29;20047;-77
2022/10/19 09:36:48;;;;;;;16.05;9.40;;;;;;;;;;4943949;29;20393;-77
2022/10/19 09:39:34;;;;;;;17.58;10.40;;;;;;;;;;4937520;29;20043;-79
2022/10/19 09:42:35;;;;;;;15.80;9.32;;;;;;;;;;4937457;29;20048;-76
2022/10/19 09:45:42;;;;;;;13.65;8.60;;;;;;;;;;4937739;29;20051;-76
2022/10/19 09:48:40;;;;;;;18.42;8.60;;;;;;;;;;4937956;29;20047;-78
2022/10/19 09:51:38;;;;;;;18.30;8.77;;;;;;;;;;4936834;29;20039;-79
2022/10/19 09:54:41;;;;;;;15.50;7.55;;;;;;;;;;4937372;29;20048;-78
2022/10/19 09:57:26;;;;;;;21.67;10.70;;;;;;;;;;4937204;29;20052;-79
2022/10/19 10:00:41;;;;;;;16.88;8.95;;;;;;;;;;4937060;29;20047;-77
2022/10/19 10:03:38;;;;;;;13.38;7.05;;;;;;;;;;4937397;29;20525;-79
2022/10/19 10:06:23;;;;;;;16.52;9.68;;;;;;;;;;4943744;29;20048;-77
2022/10/19 10:09:15;;;;;;;18.65;9.90;;;;;;;;;;4943320;29;20067;-79
2022/10/19 10:12:03;;;;;;;12.93;8.05;;;;;;;;;;4936893;29;20052;-79
2022/10/19 10:14:50;;;;;;;15.32;9.27;;;;;;;;;;4943241;29;20047;-77
2022/10/19 10:17:37;;;;;;;14.07;7.68;;;;;;;;;;4936843;29;20055;-78
2022/10/19 10:20:29;;;;;;;19.08;9.93;;;;;;;;;;4936883;29;20051;-79
2022/10/19 10:23:23;;;;;;;12.55;7.72;;;;;;;;;;4936701;29;20059;-78
2022/10/19 10:26:18;;;;;;;13.65;7.55;;;;;;;;;;4943179;29;20051;-78
2022/10/19 10:29:17;;;;;;;15.82;9.32;;;;;;;;;;4936658;29;20043;-80
2022/10/19 10:32:11;;;;;;;11.77;7.88;;;;;;;;;;4936643;29;20051;-77
2022/10/19 10:35:06;;;;;;;11.13;7.47;;;;;;;;;;4936804;29;20497;-78
2022/10/19 10:38:02;;;;;;;14.43;9.00;;;;;;;;;;4943328;29;20043;-80
2022/10/19 10:40:52;;;;;;;16.77;8.90;;;;;;;;;;4936200;29;20052;-79
2022/10/19 10:44:05;;;;;;;17.00;8.98;;;;;;;;;;4943294;29;20047;-81
2022/10/19 10:46:57;;;;;;;20.88;9.60;;;;;;;;;;4938864;29;20039;-78
2022/10/19 10:49:51;;;;;;;14.73;9.15;;;;;;;;;;4936542;29;20040;-78
2022/10/19 10:52:57;;;;;;;15.85;9.32;;;;;;;;;;4936774;29;20051;-79
2022/10/19 10:55:54;;;;;;;16.38;9.48;;;;;;;;;;4936511;29;20035;-80
2022/10/19 10:58:57;;;;;;;20.75;9.43;;;;;;;;;;4936409;29;20043;-77
2022/10/19 11:02:02;;;;;;;11.60;7.45;;;;;;;;;;4936325;29;20048;-80
2022/10/19 11:04:56;;;;;;;15.68;8.60;;;;;;;;;;4936333;29;20047;-78
2022/10/19 11:08:10;;;;;;;15.70;8.80;;;;;;;;;;4936263;29;20397;-81
2022/10/19 11:11:04;;;;;;;15.40;9.30;;;;;;;;;;4936125;29;20048;-79
2022/10/19 11:14:32;;;;;;;12.27;6.38;;;;;;;;;;4941567;29;20051;-80
2022/10/19 11:17:22;;;;;;;13.35;7.78;;;;;;;;;;4928354;29;20048;-78
2022/10/19 11:20:14;;;;;;;16.80;8.70;;;;;;;;;;4942734;29;20039;-78
2022/10/19 11:23:11;;;;;;;12.63;7.65;;;;;;;;;;4935940;29;20047;-80
2022/10/19 11:26:05;;;;;;;13.48;8.00;;;;;;;;;;4935991;29;20044;-79
2022/10/19 11:29:27;;;;;;;12.23;6.70;;;;;;;;;;4936385;29;20047;-79
2022/10/19 11:32:39;;;;;;;6.32;4.65;;;;;;;;;;4935946;29;20052;-80
2022/10/19 11:35:30;;;;;;;15.23;6.82;;;;;;;;;;4942138;29;20047;-78
2022/10/19 11:38:30;;;;;;;13.07;8.18;;;;;;;;;;4935886;29;20389;-79
2022/10/19 11:41:48;;;;;;;16.55;7.32;;;;;;;;;;4935923;29;20074;-79
2022/10/19 11:44:51;;;;;;;9.55;5.65;;;;;;;;;;4935829;29;20035;-81
2022/10/19 11:47:54;;;;;;;26.15;13.35;;;;;;;;;;4935668;29;20056;-79
2022/10/19 11:50:42;;;;;;;14.55;7.45;;;;;;;;;;4935357;29;20059;-81
2022/10/19 11:53:40;;;;;;;25.50;12.98;;;;;;;;;;4945057;29;20478;-79
2022/10/19 11:56:32;;;;;;;11.73;7.28;;;;;;;;;;4939602;29;20040;-82
2022/10/19 11:59:29;;;;;;;13.70;7.38;;;;;;;;;;4946083;29;20043;-78
2022/10/19 12:02:37;;;;;;;14.10;8.27;;;;;;;;;;4945724;29;20482;-79
2022/10/19 12:05:46;;;;;;;11.82;7.55;;;;;;;;;;4946060;29;20044;-81
2022/10/19 12:08:58;;;;;;;32.92;8.00;;;;;;;;;;4939281;29;20048;-78
2022/10/19 12:12:16;;;;;;;12.10;7.13;;;;;;;;;;4920115;29;20405;-79
2022/10/19 12:15:10;;;;;;;15.35;7.90;;;;;;;;;;4945142;29;20047;-82
2022/10/19 12:18:01;;;;;;;11.13;6.97;;;;;;;;;;4938987;29;20043;-79
2022/10/19 12:20:51;;;;;;;23.20;8.50;;;;;;;;;;4940741;29;20051;-80
2022/10/19 12:23:39;;;;;;;12.63;8.68;;;;;;;;;;4945637;29;20043;-80
2022/10/19 12:26:28;;;;;;;23.00;8.30;;;;;;;;;;4939168;29;20489;-78
2022/10/19 12:29:22;;;;;;;18.40;8.52;;;;;;;;;;4938835;29;20043;-80
2022/10/19 12:32:14;;;;;;;11.32;6.55;;;;;;;;;;4938797;29;20047;-79
2022/10/19 12:35:21;;;;;;;16.42;6.30;;;;;;;;;;4944126;29;20051;-79
2022/10/19 12:38:29;;;;;;;14.25;7.70;;;;;;;;;;4938699;29;20048;-79
2022/10/19 12:41:30;;;;;;;15.98;8.07;;;;;;;;;;4933519;29;20056;-79
2022/10/19 12:44:35;;;;;;;12.52;6.93;;;;;;;;;;4938909;29;20043;-84
2022/10/19 12:47:22;;;;;;;22.55;9.07;;;;;;;;;;4938730;29;20055;-80
2022/10/19 12:50:07;;;;;;;13.40;6.93;;;;;;;;;;4938154;29;20048;-81
2022/10/19 12:52:53;;;;;;;16.17;8.27;;;;;;;;;;4938520;29;20040;-81
2022/10/19 12:55:39;;;;;;;17.67;7.50;;;;;;;;;;4938363;29;20056;-79
2022/10/19 12:58:24;;;;;;;15.13;6.70;;;;;;;;;;4938279;29;20047;-80
2022/10/19 13:01:19;;;;;;;10.27;6.47;;;;;;;;;;4938196;29;20044;-80
2022/10/19 13:04:15;;;;;;;14.88;7.30;;;;;;;;;;4937630;29;20047;-79
2022/10/19 13:07:09;;;;;;;12.43;7.13;;;;;;;;;;4938652;29;20039;-79
2022/10/19 13:10:05;;;;;;;10.88;7.53;;;;;;;;;;4942977;29;20047;-79
2022/10/19 13:12:50;;;;;;;14.02;7.53;;;;;;;;;;4938031;29;20044;-80
2022/10/19 13:15:36;;;;;;;11.55;7.60;;;;;;;;;;4937888;29;20051;-79
2022/10/19 13:19:02;;;;;;;13.40;6.50;;;;;;;;;;4937493;29;20052;-81
2022/10/19 13:21:58;;;;;;;13.25;8.70;;;;;;;;;;4860566;29;20049;-80
2022/10/19 13:25:32;;;;;;;23.23;9.23;;;;;;;;;;4866580;29;20489;-78
2022/10/19 13:28:32;;;;;;;21.05;9.52;;;;;;;;;;4936136;29;20059;-78
2022/10/19 13:31:27;;;;;;;13.90;8.50;;;;;;;;;;4937448;29;20044;-80
2022/10/19 13:34:14;;;;;;;18.08;8.43;;;;;;;;;;4937687;29;20051;-78
2022/10/19 13:37:02;;;;;;;14.75;8.30;;;;;;;;;;4937582;29;20390;-79
2022/10/19 13:39:48;;;;;;;15.02;7.57;;;;;;;;;;4943619;29;20420;-77
2022/10/19 13:42:34;;;;;;;17.27;7.75;;;;;;;;;;4937687;29;20040;-77
2022/10/19 13:45:23;;;;;;;22.75;9.77;;;;;;;;;;4937263;29;20052;-79
2022/10/19 13:48:46;;;;;;;15.05;7.25;;;;;;;;;;4937297;29;20048;-79
2022/10/19 13:52:08;;;;;;;14.55;8.05;;;;;;;;;;4907837;29;20048;-78
2022/10/19 13:55:27;;;;;;;12.25;7.60;;;;;;;;;;4937070;29;20040;-77
2022/10/19 13:58:40;;;;;;;17.45;6.88;;;;;;;;;;4936875;29;20039;-77
2022/10/19 14:01:47;;;;;;;212.70;136.65;;;;;;;;;;4942157;29;20055;-77
2022/10/19 14:05:03;;;;;;;42.63;23.50;;;;;;;;;;4942770;29;20047;-77
2022/10/19 14:08:01;;;;;;;13.95;9.05;;;;;;;;;;4939793;29;20047;-79
2022/10/19 14:10:56;;;;;;;28.63;16.83;;;;;;;;;;4937197;29;20056;-76
2022/10/19 14:13:43;;;;;;;19.55;10.45;;;;;;;;;;4936919;29;20478;-77
2022/10/19 14:16:27;;;;;;;18.75;13.73;;;;;;;;;;4935341;29;20048;-77
2022/10/19 14:19:25;;;;;;;25.65;15.60;;;;;;;;;;4943417;29;20043;-77
2022/10/19 14:22:32;;;;;;;19.10;10.88;;;;;;;;;;4936808;29;20043;-77
2022/10/19 14:25:26;;;;;;;15.45;10.07;;;;;;;;;;4937120;29;20044;-78
2022/10/19 14:28:16;;;;;;;15.48;8.75;;;;;;;;;;4936703;29;20055;-78
2022/10/19 14:31:03;;;;;;;21.30;9.88;;;;;;;;;;4936810;29;20044;-79
2022/10/19 14:33:53;;;;;;;15.00;6.28;;;;;;;;;;4935514;29;20401;-77
2022/10/19 14:36:44;;;;;;;19.83;12.27;;;;;;;;;;4936786;29;20047;-77
2022/10/19 14:39:33;;;;;;;12.38;8.35;;;;;;;;;;4940311;29;20059;-78
2022/10/19 14:42:18;;;;;;;14.93;10.70;;;;;;;;;;4942735;29;20043;-78
2022/10/19 14:45:11;;;;;;;19.08;10.32;;;;;;;;;;4938366;29;20043;-77
2022/10/19 14:48:05;;;;;;;23.58;9.90;;;;;;;;;;4943839;29;20043;-79
2022/10/19 14:50:55;;;;;;;13.40;9.32;;;;;;;;;;4936149;29;20406;-79
2022/10/19 14:54:07;;;;;;;31.77;16.95;;;;;;;;;;4942581;29;20043;-78
2022/10/19 14:57:19;;;;;;;28.02;16.05;;;;;;;;;;4936272;29;20047;-78
2022/10/19 15:00:13;;;;;;;27.13;14.30;;;;;;;;;;4936116;29;20068;-80
2022/10/19 15:03:06;;;;;;;30.05;17.35;;;;;;;;;;4935588;29;20110;-78
2022/10/19 15:06:01;;;;;;;20.25;13.18;;;;;;;;;;4936100;29;20393;-79
2022/10/19 15:09:06;;;;;;;29.77;15.88;;;;;;;;;;4935918;29;20036;-78
2022/10/19 15:11:53;;;;;;;29.35;16.20;;;;;;;;;;4935778;29;20040;-80
2022/10/19 15:14:39;;;;;;;31.23;17.45;;;;;;;;;;4936258;29;20334;-80
2022/10/19 15:17:30;;;;;;;27.48;17.58;;;;;;;;;;4936060;29;20043;-79
2022/10/19 15:20:27;;;;;;;28.58;16.27;;;;;;;;;;4942681;29;20047;-77
2022/10/19 15:23:30;;;;;;;28.92;19.88;;;;;;;;;;4936483;29;20035;-80
2022/10/19 15:26:25;;;;;;;34.53;20.67;;;;;;;;;;4936347;29;20051;-77
2022/10/19 15:29:28;;;;;;;39.25;21.48;;;;;;;;;;4940107;29;20040;-78
2022/10/19 15:32:15;;;;;;;26.42;15.27;;;;;;;;;;4925169;29;20486;-78
2022/10/19 15:35:16;;;;;;;26.38;17.02;;;;;;;;;;4939406;29;20048;-79
2022/10/19 15:38:08;;;;;;;30.08;18.38;;;;;;;;;;4940186;29;20048;-78
2022/10/19 15:41:02;;;;;;;26.08;15.23;;;;;;;;;;4939938;29;20044;-78
2022/10/19 15:43:52;;;;;;;34.28;18.00;;;;;;;;;;4939570;29;20044;-80
2022/10/19 15:47:10;;;;;;;23.50;16.10;;;;;;;;;;4939547;29;20449;-80
2022/10/19 15:49:59;;;;;;;14.55;9.05;;;;;;;;;;4936436;29;20052;-79
2022/10/19 15:52:44;;;;;;;21.60;13.25;;;;;;;;;;4939394;29;20044;-78
2022/10/19 15:55:29;;;;;;;23.67;15.18;;;;;;;;;;4939353;29;20048;-80
2022/10/19 15:58:15;;;;;;;24.25;15.23;;;;;;;;;;4945734;29;20406;-81
2022/10/19 16:01:00;;;;;;;33.22;20.95;;;;;;;;;;4939206;29;20060;-79
2022/10/19 16:03:45;;;;;;;46.10;27.70;;;;;;;;;;4939098;29;20043;-77
2022/10/19 16:06:33;;;;;;;39.42;20.58;;;;;;;;;;4938700;29;20493;-79
2022/10/19 16:09:20;;;;;;;58.47;25.67;;;;;;;;;;4939819;29;20043;-80
2022/10/19 16:12:05;;;;;;;36.45;19.27;;;;;;;;;;4939146;29;20509;-78
2022/10/19 16:14:51;;;;;;;34.08;19.48;;;;;;;;;;4939233;29;20048;-80
2022/10/19 16:17:36;;;;;;;34.78;20.38;;;;;;;;;;4939340;29;20052;-79
2022/10/19 16:20:21;;;;;;;48.28;23.38;;;;;;;;;;4945163;29;20405;-79
2022/10/19 16:23:07;;;;;;;36.88;20.80;;;;;;;;;;4939255;29;20052;-77
2022/10/19 16:25:55;;;;;;;29.50;16.50;;;;;;;;;;4938689;29;20047;-81
2022/10/19 16:28:41;;;;;;;38.78;21.67;;;;;;;;;;4945427;29;20051;-80
2022/10/19 16:31:36;;;;;;;42.53;25.13;;;;;;;;;;4944780;29;20060;-83
2022/10/19 16:34:26;;;;;;;65.65;31.77;;;;;;;;;;4944323;29;20047;-81
2022/10/19 16:37:11;;;;;;;52.90;31.00;;;;;;;;;;4938688;29;20059;-82
2022/10/19 16:40:03;;;;;;;39.65;19.70;;;;;;;;;;4938406;29;20052;-83
2022/10/19 16:42:51;;;;;;;42.92;23.20;;;;;;;;;;4939065;29;20043;-82
2022/10/19 16:45:41;;;;;;;34.58;21.58;;;;;;;;;;4938677;29;20055;-81